sensor_id;sensor_type;location;lat;lon;timestamp;P1;durP1;ratioP1;P2;durP2;ratioP2
5608;SDS011;2826;51.354;9.588;2023-04-16T00:00:43;77.63;;;37.90;;
5608;SDS011;2826;51.354;9.588;2023-04-16T00:03:11;78.63;;;39.00;;
5608;SDS011;2826;51.354;9.588;2023-04-16T00:05:37;73.63;;;35.93;;
5608;SDS011;2826;51.354;9.588;2023-04-16T00:08:05;78.80;;;37.87;;
5608;SDS011;2826;51.354;9.588;2023-04-16T00:10:33;84.73;;;38.23;;
5608;SDS011;2826;51.354;9.588;2023-04-16T00:12:59;70.27;;;36.20;;
5608;SDS011;2826;51.354;9.588;2023-04-16T00:15:26;68.57;;;34.60;;
5608;SDS011;2826;51.354;9.588;2023-04-16T00:17:53;79.87;;;38.70;;
5608;SDS011;2826;51.354;9.588;2023-04-16T00:20:20;75.37;;;35.53;;
5608;SDS011;2826;51.354;9.588;2023-04-16T00:22:47;85.77;;;40.07;;
5608;SDS011;2826;51.354;9.588;2023-04-16T00:25:15;72.53;;;33.80;;
5608;SDS011;2826;51.354;9.588;2023-04-16T00:27:42;75.53;;;39.27;;
5608;SDS011;2826;51.354;9.588;2023-04-16T00:30:09;73.33;;;38.97;;
5608;SDS011;2826;51.354;9.588;2023-04-16T00:32:36;73.17;;;35.80;;
5608;SDS011;2826;51.354;9.588;2023-04-16T00:35:04;83.00;;;40.07;;
5608;SDS011;2826;51.354;9.588;2023-04-16T00:37:31;86.50;;;41.37;;
5608;SDS011;2826;51.354;9.588;2023-04-16T00:39:59;72.30;;;36.30;;
5608;SDS011;2826;51.354;9.588;2023-04-16T00:42:27;61.90;;;32.97;;
5608;SDS011;2826;51.354;9.588;2023-04-16T00:44:55;53.87;;;27.93;;
5608;SDS011;2826;51.354;9.588;2023-04-16T00:47:21;54.43;;;26.60;;
5608;SDS011;2826;51.354;9.588;2023-04-16T00:49:49;71.10;;;36.30;;
5608;SDS011;2826;51.354;9.588;2023-04-16T00:52:16;74.97;;;37.47;;
5608;SDS011;2826;51.354;9.588;2023-04-16T00:54:43;71.23;;;37.70;;
5608;SDS011;2826;51.354;9.588;2023-04-16T00:57:10;67.53;;;35.10;;
5608;SDS011;2826;51.354;9.588;2023-04-16T00:59:40;73.50;;;38.80;;
5608;SDS011;2826;51.354;9.588;2023-04-16T01:02:07;81.27;;;36.87;;
5608;SDS011;2826;51.354;9.588;2023-04-16T01:04:34;71.97;;;37.80;;
5608;SDS011;2826;51.354;9.588;2023-04-16T01:07:01;80.60;;;37.43;;
5608;SDS011;2826;51.354;9.588;2023-04-16T01:09:28;65.70;;;38.07;;
5608;SDS011;2826;51.354;9.588;2023-04-16T01:11:55;70.87;;;38.53;;
5608;SDS011;2826;51.354;9.588;2023-04-16T01:14:22;69.33;;;37.40;;
5608;SDS011;2826;51.354;9.588;2023-04-16T01:16:50;74.97;;;40.07;;
5608;SDS011;2826;51.354;9.588;2023-04-16T01:19:17;68.90;;;35.37;;
5608;SDS011;2826;51.354;9.588;2023-04-16T01:21:45;71.60;;;36.27;;
5608;SDS011;2826;51.354;9.588;2023-04-16T01:24:12;63.00;;;35.40;;
5608;SDS011;2826;51.354;9.588;2023-04-16T01:26:38;71.43;;;38.60;;
5608;SDS011;2826;51.354;9.588;2023-04-16T01:29:06;65.23;;;35.10;;
5608;SDS011;2826;51.354;9.588;2023-04-16T01:31:33;66.47;;;37.13;;
5608;SDS011;2826;51.354;9.588;2023-04-16T01:34:04;73.87;;;38.43;;
5608;SDS011;2826;51.354;9.588;2023-04-16T01:36:33;73.30;;;36.60;;
5608;SDS011;2826;51.354;9.588;2023-04-16T01:39:01;70.07;;;37.60;;
5608;SDS011;2826;51.354;9.588;2023-04-16T01:41:28;56.93;;;33.17;;
5608;SDS011;2826;51.354;9.588;2023-04-16T01:43:55;67.60;;;33.90;;
5608;SDS011;2826;51.354;9.588;2023-04-16T01:46:24;75.40;;;36.17;;
5608;SDS011;2826;51.354;9.588;2023-04-16T01:48:53;59.30;;;33.23;;
5608;SDS011;2826;51.354;9.588;2023-04-16T01:51:20;57.73;;;32.53;;
5608;SDS011;2826;51.354;9.588;2023-04-16T01:53:47;64.03;;;36.10;;
5608;SDS011;2826;51.354;9.588;2023-04-16T01:56:15;68.43;;;37.00;;
5608;SDS011;2826;51.354;9.588;2023-04-16T01:58:42;54.07;;;32.10;;
5608;SDS011;2826;51.354;9.588;2023-04-16T02:01:11;57.87;;;31.80;;
5608;SDS011;2826;51.354;9.588;2023-04-16T02:03:39;58.30;;;34.40;;
5608;SDS011;2826;51.354;9.588;2023-04-16T02:06:06;62.97;;;35.97;;
5608;SDS011;2826;51.354;9.588;2023-04-16T02:08:34;66.70;;;35.70;;
5608;SDS011;2826;51.354;9.588;2023-04-16T02:11:01;69.20;;;37.30;;
5608;SDS011;2826;51.354;9.588;2023-04-16T02:13:28;67.40;;;36.90;;
5608;SDS011;2826;51.354;9.588;2023-04-16T02:15:56;73.40;;;37.23;;
5608;SDS011;2826;51.354;9.588;2023-04-16T02:18:43;67.27;;;35.07;;
5608;SDS011;2826;51.354;9.588;2023-04-16T02:21:13;69.50;;;37.13;;
5608;SDS011;2826;51.354;9.588;2023-04-16T02:23:40;66.27;;;36.07;;
5608;SDS011;2826;51.354;9.588;2023-04-16T02:26:08;57.90;;;29.87;;
5608;SDS011;2826;51.354;9.588;2023-04-16T02:28:36;70.53;;;37.97;;
5608;SDS011;2826;51.354;9.588;2023-04-16T02:31:04;69.83;;;36.77;;
5608;SDS011;2826;51.354;9.588;2023-04-16T02:33:38;72.20;;;39.17;;
5608;SDS011;2826;51.354;9.588;2023-04-16T02:36:06;72.00;;;35.70;;
5608;SDS011;2826;51.354;9.588;2023-04-16T02:38:34;82.37;;;42.90;;
5608;SDS011;2826;51.354;9.588;2023-04-16T02:41:02;78.57;;;41.00;;
5608;SDS011;2826;51.354;9.588;2023-04-16T02:43:29;76.63;;;41.57;;
5608;SDS011;2826;51.354;9.588;2023-04-16T02:45:57;76.67;;;41.40;;
5608;SDS011;2826;51.354;9.588;2023-04-16T02:48:24;79.10;;;40.60;;
5608;SDS011;2826;51.354;9.588;2023-04-16T02:50:51;77.03;;;40.70;;
5608;SDS011;2826;51.354;9.588;2023-04-16T02:53:18;75.47;;;41.70;;
5608;SDS011;2826;51.354;9.588;2023-04-16T02:55:48;93.90;;;41.90;;
5608;SDS011;2826;51.354;9.588;2023-04-16T02:58:17;73.40;;;39.20;;
5608;SDS011;2826;51.354;9.588;2023-04-16T03:00:45;78.13;;;41.17;;
5608;SDS011;2826;51.354;9.588;2023-04-16T03:03:13;73.10;;;37.07;;
5608;SDS011;2826;51.354;9.588;2023-04-16T03:05:40;66.80;;;35.80;;
5608;SDS011;2826;51.354;9.588;2023-04-16T03:08:07;59.80;;;31.53;;
5608;SDS011;2826;51.354;9.588;2023-04-16T03:10:35;62.83;;;34.77;;
5608;SDS011;2826;51.354;9.588;2023-04-16T03:13:02;55.90;;;33.50;;
5608;SDS011;2826;51.354;9.588;2023-04-16T03:15:30;62.40;;;34.03;;
5608;SDS011;2826;51.354;9.588;2023-04-16T03:17:57;61.97;;;34.73;;
5608;SDS011;2826;51.354;9.588;2023-04-16T03:20:25;57.07;;;32.10;;
5608;SDS011;2826;51.354;9.588;2023-04-16T03:22:52;69.43;;;35.37;;
5608;SDS011;2826;51.354;9.588;2023-04-16T03:25:19;63.57;;;32.70;;
5608;SDS011;2826;51.354;9.588;2023-04-16T03:27:46;46.87;;;26.37;;
5608;SDS011;2826;51.354;9.588;2023-04-16T03:30:15;43.33;;;24.60;;
5608;SDS011;2826;51.354;9.588;2023-04-16T03:32:42;59.10;;;32.17;;
5608;SDS011;2826;51.354;9.588;2023-04-16T03:35:10;60.20;;;32.60;;
5608;SDS011;2826;51.354;9.588;2023-04-16T03:37:38;38.13;;;22.10;;
5608;SDS011;2826;51.354;9.588;2023-04-16T03:40:06;67.00;;;34.93;;
5608;SDS011;2826;51.354;9.588;2023-04-16T03:42:33;63.57;;;32.30;;
5608;SDS011;2826;51.354;9.588;2023-04-16T03:45:01;65.77;;;34.03;;
5608;SDS011;2826;51.354;9.588;2023-04-16T03:47:29;56.70;;;31.57;;
5608;SDS011;2826;51.354;9.588;2023-04-16T03:50:00;46.67;;;24.87;;
5608;SDS011;2826;51.354;9.588;2023-04-16T03:52:27;68.00;;;32.87;;
5608;SDS011;2826;51.354;9.588;2023-04-16T03:54:55;70.60;;;38.47;;
5608;SDS011;2826;51.354;9.588;2023-04-16T03:57:25;59.20;;;36.50;;
5608;SDS011;2826;51.354;9.588;2023-04-16T03:59:56;70.93;;;38.33;;
5608;SDS011;2826;51.354;9.588;2023-04-16T04:02:26;73.83;;;40.40;;
5608;SDS011;2826;51.354;9.588;2023-04-16T04:04:53;71.50;;;38.30;;
5608;SDS011;2826;51.354;9.588;2023-04-16T04:07:20;62.53;;;37.23;;
5608;SDS011;2826;51.354;9.588;2023-04-16T04:09:47;69.23;;;36.10;;
5608;SDS011;2826;51.354;9.588;2023-04-16T04:12:15;72.30;;;38.60;;
5608;SDS011;2826;51.354;9.588;2023-04-16T04:14:44;71.80;;;39.23;;
5608;SDS011;2826;51.354;9.588;2023-04-16T04:17:11;53.47;;;26.70;;
5608;SDS011;2826;51.354;9.588;2023-04-16T04:19:38;74.13;;;39.80;;
5608;SDS011;2826;51.354;9.588;2023-04-16T04:22:06;85.07;;;41.30;;
5608;SDS011;2826;51.354;9.588;2023-04-16T04:24:32;82.67;;;43.00;;
5608;SDS011;2826;51.354;9.588;2023-04-16T04:27:00;81.83;;;42.53;;
5608;SDS011;2826;51.354;9.588;2023-04-16T04:29:28;73.83;;;40.77;;
5608;SDS011;2826;51.354;9.588;2023-04-16T04:31:55;73.13;;;37.50;;
5608;SDS011;2826;51.354;9.588;2023-04-16T04:34:23;74.57;;;40.53;;
5608;SDS011;2826;51.354;9.588;2023-04-16T04:36:53;82.30;;;42.27;;
5608;SDS011;2826;51.354;9.588;2023-04-16T04:39:20;73.87;;;37.47;;
5608;SDS011;2826;51.354;9.588;2023-04-16T04:41:48;79.53;;;42.90;;
5608;SDS011;2826;51.354;9.588;2023-04-16T04:44:17;73.30;;;38.50;;
5608;SDS011;2826;51.354;9.588;2023-04-16T04:46:45;65.17;;;35.33;;
5608;SDS011;2826;51.354;9.588;2023-04-16T04:49:12;74.07;;;38.83;;
5608;SDS011;2826;51.354;9.588;2023-04-16T04:51:39;70.20;;;37.57;;
5608;SDS011;2826;51.354;9.588;2023-04-16T04:54:06;60.70;;;33.10;;
5608;SDS011;2826;51.354;9.588;2023-04-16T04:56:33;72.03;;;38.97;;
5608;SDS011;2826;51.354;9.588;2023-04-16T04:59:00;71.40;;;37.20;;
5608;SDS011;2826;51.354;9.588;2023-04-16T05:01:27;52.17;;;28.37;;
5608;SDS011;2826;51.354;9.588;2023-04-16T05:03:54;49.63;;;27.20;;
5608;SDS011;2826;51.354;9.588;2023-04-16T05:06:22;79.10;;;40.10;;
5608;SDS011;2826;51.354;9.588;2023-04-16T05:08:49;68.03;;;37.23;;
5608;SDS011;2826;51.354;9.588;2023-04-16T05:11:15;81.97;;;38.97;;
5608;SDS011;2826;51.354;9.588;2023-04-16T05:13:42;70.50;;;37.00;;
5608;SDS011;2826;51.354;9.588;2023-04-16T05:16:09;63.90;;;35.07;;
5608;SDS011;2826;51.354;9.588;2023-04-16T05:18:36;63.00;;;35.90;;
5608;SDS011;2826;51.354;9.588;2023-04-16T05:21:04;68.93;;;36.17;;
5608;SDS011;2826;51.354;9.588;2023-04-16T05:23:31;53.60;;;29.77;;
5608;SDS011;2826;51.354;9.588;2023-04-16T05:25:58;55.83;;;31.43;;
5608;SDS011;2826;51.354;9.588;2023-04-16T05:28:25;58.83;;;33.00;;
5608;SDS011;2826;51.354;9.588;2023-04-16T05:30:52;52.73;;;28.63;;
5608;SDS011;2826;51.354;9.588;2023-04-16T05:33:19;72.00;;;33.07;;
5608;SDS011;2826;51.354;9.588;2023-04-16T05:35:45;58.03;;;35.03;;
5608;SDS011;2826;51.354;9.588;2023-04-16T05:38:12;66.30;;;37.50;;
5608;SDS011;2826;51.354;9.588;2023-04-16T05:40:39;66.07;;;38.50;;
5608;SDS011;2826;51.354;9.588;2023-04-16T05:43:06;74.73;;;38.67;;
5608;SDS011;2826;51.354;9.588;2023-04-16T05:45:33;75.70;;;38.20;;
5608;SDS011;2826;51.354;9.588;2023-04-16T05:48:04;70.93;;;36.37;;
5608;SDS011;2826;51.354;9.588;2023-04-16T05:50:31;66.33;;;36.00;;
5608;SDS011;2826;51.354;9.588;2023-04-16T05:52:58;73.63;;;37.87;;
5608;SDS011;2826;51.354;9.588;2023-04-16T05:55:26;60.10;;;35.27;;
5608;SDS011;2826;51.354;9.588;2023-04-16T05:57:53;70.03;;;37.10;;
5608;SDS011;2826;51.354;9.588;2023-04-16T06:00:20;52.20;;;28.90;;
5608;SDS011;2826;51.354;9.588;2023-04-16T06:02:47;70.60;;;36.13;;
5608;SDS011;2826;51.354;9.588;2023-04-16T06:05:14;68.30;;;36.03;;
5608;SDS011;2826;51.354;9.588;2023-04-16T06:07:41;64.07;;;36.63;;
5608;SDS011;2826;51.354;9.588;2023-04-16T06:10:09;66.37;;;36.40;;
5608;SDS011;2826;51.354;9.588;2023-04-16T06:12:36;55.67;;;32.30;;
5608;SDS011;2826;51.354;9.588;2023-04-16T06:15:04;59.07;;;32.63;;
5608;SDS011;2826;51.354;9.588;2023-04-16T06:17:31;54.23;;;32.07;;
5608;SDS011;2826;51.354;9.588;2023-04-16T06:19:58;57.77;;;33.80;;
5608;SDS011;2826;51.354;9.588;2023-04-16T06:22:25;59.20;;;32.37;;
5608;SDS011;2826;51.354;9.588;2023-04-16T06:24:52;35.73;;;20.50;;
5608;SDS011;2826;51.354;9.588;2023-04-16T06:27:18;44.03;;;25.60;;
5608;SDS011;2826;51.354;9.588;2023-04-16T06:29:46;46.10;;;26.30;;
5608;SDS011;2826;51.354;9.588;2023-04-16T06:32:13;44.63;;;24.93;;
5608;SDS011;2826;51.354;9.588;2023-04-16T06:34:41;58.03;;;31.27;;
5608;SDS011;2826;51.354;9.588;2023-04-16T06:37:08;60.47;;;32.67;;
5608;SDS011;2826;51.354;9.588;2023-04-16T06:39:36;58.40;;;31.40;;
5608;SDS011;2826;51.354;9.588;2023-04-16T06:42:03;59.63;;;31.40;;
5608;SDS011;2826;51.354;9.588;2023-04-16T06:44:30;64.33;;;33.67;;
5608;SDS011;2826;51.354;9.588;2023-04-16T06:46:57;41.50;;;23.10;;
5608;SDS011;2826;51.354;9.588;2023-04-16T06:49:24;62.33;;;34.10;;
5608;SDS011;2826;51.354;9.588;2023-04-16T06:51:51;59.37;;;33.77;;
5608;SDS011;2826;51.354;9.588;2023-04-16T06:54:18;57.53;;;34.03;;
5608;SDS011;2826;51.354;9.588;2023-04-16T06:56:46;66.00;;;33.70;;
5608;SDS011;2826;51.354;9.588;2023-04-16T06:59:13;65.27;;;35.20;;
5608;SDS011;2826;51.354;9.588;2023-04-16T07:01:39;59.60;;;34.87;;
5608;SDS011;2826;51.354;9.588;2023-04-16T07:04:07;60.87;;;29.57;;
5608;SDS011;2826;51.354;9.588;2023-04-16T07:06:35;43.17;;;19.70;;
5608;SDS011;2826;51.354;9.588;2023-04-16T07:09:03;68.27;;;36.23;;
5608;SDS011;2826;51.354;9.588;2023-04-16T07:11:30;49.33;;;27.50;;
5608;SDS011;2826;51.354;9.588;2023-04-16T07:13:57;71.17;;;33.53;;
5608;SDS011;2826;51.354;9.588;2023-04-16T07:16:24;45.50;;;22.50;;
5608;SDS011;2826;51.354;9.588;2023-04-16T07:18:51;70.33;;;34.83;;
5608;SDS011;2826;51.354;9.588;2023-04-16T07:21:19;56.80;;;31.37;;
5608;SDS011;2826;51.354;9.588;2023-04-16T07:23:48;71.97;;;33.53;;
5608;SDS011;2826;51.354;9.588;2023-04-16T07:26:16;75.80;;;34.97;;
5608;SDS011;2826;51.354;9.588;2023-04-16T07:28:43;68.40;;;37.33;;
5608;SDS011;2826;51.354;9.588;2023-04-16T07:31:10;64.37;;;31.63;;
5608;SDS011;2826;51.354;9.588;2023-04-16T07:33:37;59.13;;;29.87;;
5608;SDS011;2826;51.354;9.588;2023-04-16T07:36:04;68.60;;;36.13;;
5608;SDS011;2826;51.354;9.588;2023-04-16T07:38:33;55.30;;;29.20;;
5608;SDS011;2826;51.354;9.588;2023-04-16T07:41:00;60.57;;;32.33;;
5608;SDS011;2826;51.354;9.588;2023-04-16T07:43:27;67.27;;;34.37;;
5608;SDS011;2826;51.354;9.588;2023-04-16T07:45:54;67.43;;;33.53;;
5608;SDS011;2826;51.354;9.588;2023-04-16T07:48:21;62.47;;;33.40;;
5608;SDS011;2826;51.354;9.588;2023-04-16T07:50:48;66.30;;;34.33;;
5608;SDS011;2826;51.354;9.588;2023-04-16T07:53:15;81.10;;;36.90;;
5608;SDS011;2826;51.354;9.588;2023-04-16T07:55:43;59.63;;;33.33;;
5608;SDS011;2826;51.354;9.588;2023-04-16T07:58:10;48.27;;;24.83;;
5608;SDS011;2826;51.354;9.588;2023-04-16T08:00:37;58.70;;;27.10;;
5608;SDS011;2826;51.354;9.588;2023-04-16T08:03:05;54.47;;;27.60;;
5608;SDS011;2826;51.354;9.588;2023-04-16T08:05:32;61.13;;;32.90;;
5608;SDS011;2826;51.354;9.588;2023-04-16T08:07:59;56.47;;;30.97;;
5608;SDS011;2826;51.354;9.588;2023-04-16T08:10:26;65.83;;;31.40;;
5608;SDS011;2826;51.354;9.588;2023-04-16T08:12:54;42.97;;;21.40;;
5608;SDS011;2826;51.354;9.588;2023-04-16T08:15:21;33.97;;;19.77;;
5608;SDS011;2826;51.354;9.588;2023-04-16T08:17:48;49.27;;;26.70;;
5608;SDS011;2826;51.354;9.588;2023-04-16T08:20:15;50.23;;;26.07;;
5608;SDS011;2826;51.354;9.588;2023-04-16T08:22:42;56.67;;;30.10;;
5608;SDS011;2826;51.354;9.588;2023-04-16T08:25:10;51.87;;;26.83;;
5608;SDS011;2826;51.354;9.588;2023-04-16T08:27:37;49.87;;;26.23;;
5608;SDS011;2826;51.354;9.588;2023-04-16T08:30:06;48.53;;;25.87;;
5608;SDS011;2826;51.354;9.588;2023-04-16T08:32:34;54.07;;;29.40;;
5608;SDS011;2826;51.354;9.588;2023-04-16T08:35:02;45.13;;;25.37;;
5608;SDS011;2826;51.354;9.588;2023-04-16T08:37:29;50.70;;;28.27;;
5608;SDS011;2826;51.354;9.588;2023-04-16T08:39:56;55.97;;;27.47;;
5608;SDS011;2826;51.354;9.588;2023-04-16T08:42:27;51.37;;;26.00;;
5608;SDS011;2826;51.354;9.588;2023-04-16T08:44:59;52.47;;;28.53;;
5608;SDS011;2826;51.354;9.588;2023-04-16T08:47:34;43.07;;;21.20;;
5608;SDS011;2826;51.354;9.588;2023-04-16T08:50:03;44.33;;;26.00;;
5608;SDS011;2826;51.354;9.588;2023-04-16T08:52:32;48.60;;;25.17;;
5608;SDS011;2826;51.354;9.588;2023-04-16T08:55:10;48.27;;;25.80;;
5608;SDS011;2826;51.354;9.588;2023-04-16T08:57:43;47.93;;;23.40;;
5608;SDS011;2826;51.354;9.588;2023-04-16T09:00:15;49.23;;;25.23;;
5608;SDS011;2826;51.354;9.588;2023-04-16T09:02:44;47.23;;;26.87;;
5608;SDS011;2826;51.354;9.588;2023-04-16T09:05:13;44.97;;;22.83;;
5608;SDS011;2826;51.354;9.588;2023-04-16T09:07:43;42.73;;;25.17;;
5608;SDS011;2826;51.354;9.588;2023-04-16T09:10:13;58.20;;;27.53;;
5608;SDS011;2826;51.354;9.588;2023-04-16T09:13:05;51.23;;;24.20;;
5608;SDS011;2826;51.354;9.588;2023-04-16T09:15:34;50.03;;;25.00;;
5608;SDS011;2826;51.354;9.588;2023-04-16T09:18:03;53.13;;;28.27;;
5608;SDS011;2826;51.354;9.588;2023-04-16T09:20:31;55.17;;;27.70;;
5608;SDS011;2826;51.354;9.588;2023-04-16T09:22:59;60.57;;;31.40;;
5608;SDS011;2826;51.354;9.588;2023-04-16T09:25:27;57.87;;;26.07;;
5608;SDS011;2826;51.354;9.588;2023-04-16T09:27:59;68.07;;;32.00;;
5608;SDS011;2826;51.354;9.588;2023-04-16T09:30:26;61.63;;;30.83;;
5608;SDS011;2826;51.354;9.588;2023-04-16T09:33:11;58.07;;;28.17;;
5608;SDS011;2826;51.354;9.588;2023-04-16T09:35:45;62.37;;;29.97;;
5608;SDS011;2826;51.354;9.588;2023-04-16T09:38:13;60.47;;;30.73;;
5608;SDS011;2826;51.354;9.588;2023-04-16T09:40:41;63.90;;;30.70;;
5608;SDS011;2826;51.354;9.588;2023-04-16T09:43:09;67.07;;;31.97;;
5608;SDS011;2826;51.354;9.588;2023-04-16T09:45:47;67.90;;;31.77;;
5608;SDS011;2826;51.354;9.588;2023-04-16T09:48:20;78.33;;;33.87;;
5608;SDS011;2826;51.354;9.588;2023-04-16T09:50:55;63.00;;;32.27;;
5608;SDS011;2826;51.354;9.588;2023-04-16T09:53:23;66.33;;;32.20;;
5608;SDS011;2826;51.354;9.588;2023-04-16T09:55:51;63.60;;;29.83;;
5608;SDS011;2826;51.354;9.588;2023-04-16T09:58:19;65.37;;;30.30;;
5608;SDS011;2826;51.354;9.588;2023-04-16T10:00:46;57.37;;;28.07;;
5608;SDS011;2826;51.354;9.588;2023-04-16T10:03:13;67.40;;;31.83;;
5608;SDS011;2826;51.354;9.588;2023-04-16T10:05:42;67.07;;;31.30;;
5608;SDS011;2826;51.354;9.588;2023-04-16T10:08:10;63.50;;;31.43;;
5608;SDS011;2826;51.354;9.588;2023-04-16T10:10:38;64.03;;;29.90;;
5608;SDS011;2826;51.354;9.588;2023-04-16T10:13:06;68.90;;;33.20;;
5608;SDS011;2826;51.354;9.588;2023-04-16T10:15:34;68.33;;;31.73;;
5608;SDS011;2826;51.354;9.588;2023-04-16T10:18:01;71.03;;;33.80;;
5608;SDS011;2826;51.354;9.588;2023-04-16T10:20:30;62.23;;;30.57;;
5608;SDS011;2826;51.354;9.588;2023-04-16T10:23:00;67.43;;;31.40;;
5608;SDS011;2826;51.354;9.588;2023-04-16T10:25:29;60.17;;;31.10;;
5608;SDS011;2826;51.354;9.588;2023-04-16T10:27:57;60.00;;;30.97;;
5608;SDS011;2826;51.354;9.588;2023-04-16T10:30:26;62.63;;;31.73;;
5608;SDS011;2826;51.354;9.588;2023-04-16T10:32:53;62.50;;;30.80;;
5608;SDS011;2826;51.354;9.588;2023-04-16T10:35:21;63.80;;;31.80;;
5608;SDS011;2826;51.354;9.588;2023-04-16T10:37:55;57.30;;;29.87;;
5608;SDS011;2826;51.354;9.588;2023-04-16T10:40:24;57.57;;;29.97;;
5608;SDS011;2826;51.354;9.588;2023-04-16T10:42:56;63.13;;;29.90;;
5608;SDS011;2826;51.354;9.588;2023-04-16T10:45:28;56.77;;;29.53;;
5608;SDS011;2826;51.354;9.588;2023-04-16T10:47:58;58.00;;;30.57;;
5608;SDS011;2826;51.354;9.588;2023-04-16T10:50:33;59.10;;;29.17;;
5608;SDS011;2826;51.354;9.588;2023-04-16T10:53:22;59.53;;;29.03;;
5608;SDS011;2826;51.354;9.588;2023-04-16T10:56:01;58.73;;;26.43;;
5608;SDS011;2826;51.354;9.588;2023-04-16T10:58:40;55.33;;;26.60;;
5608;SDS011;2826;51.354;9.588;2023-04-16T11:01:11;54.90;;;26.87;;
5608;SDS011;2826;51.354;9.588;2023-04-16T11:03:42;56.60;;;26.17;;
5608;SDS011;2826;51.354;9.588;2023-04-16T11:06:12;53.40;;;27.50;;
5608;SDS011;2826;51.354;9.588;2023-04-16T11:08:42;60.00;;;28.93;;
5608;SDS011;2826;51.354;9.588;2023-04-16T11:11:12;50.23;;;25.50;;
5608;SDS011;2826;51.354;9.588;2023-04-16T11:13:41;55.60;;;28.23;;
5608;SDS011;2826;51.354;9.588;2023-04-16T11:16:10;47.53;;;26.80;;
5608;SDS011;2826;51.354;9.588;2023-04-16T11:18:41;51.10;;;28.80;;
5608;SDS011;2826;51.354;9.588;2023-04-16T11:21:11;56.60;;;28.60;;
5608;SDS011;2826;51.354;9.588;2023-04-16T11:23:48;47.43;;;25.80;;
5608;SDS011;2826;51.354;9.588;2023-04-16T11:26:26;54.53;;;28.03;;
5608;SDS011;2826;51.354;9.588;2023-04-16T11:28:56;55.23;;;29.47;;
5608;SDS011;2826;51.354;9.588;2023-04-16T11:31:25;49.47;;;26.70;;
5608;SDS011;2826;51.354;9.588;2023-04-16T11:33:54;51.33;;;27.63;;
5608;SDS011;2826;51.354;9.588;2023-04-16T11:36:23;53.90;;;27.90;;
5608;SDS011;2826;51.354;9.588;2023-04-16T11:39:00;58.93;;;27.17;;
5608;SDS011;2826;51.354;9.588;2023-04-16T11:41:31;57.90;;;30.23;;
5608;SDS011;2826;51.354;9.588;2023-04-16T11:43:59;53.60;;;28.50;;
5608;SDS011;2826;51.354;9.588;2023-04-16T11:46:41;47.07;;;25.20;;
5608;SDS011;2826;51.354;9.588;2023-04-16T11:49:09;49.43;;;25.90;;
5608;SDS011;2826;51.354;9.588;2023-04-16T11:51:41;55.93;;;26.10;;
5608;SDS011;2826;51.354;9.588;2023-04-16T11:54:17;51.17;;;27.40;;
5608;SDS011;2826;51.354;9.588;2023-04-16T11:56:46;49.37;;;25.90;;
5608;SDS011;2826;51.354;9.588;2023-04-16T11:59:16;55.53;;;29.53;;
5608;SDS011;2826;51.354;9.588;2023-04-16T12:01:45;46.87;;;26.07;;
5608;SDS011;2826;51.354;9.588;2023-04-16T12:04:14;48.03;;;25.60;;
5608;SDS011;2826;51.354;9.588;2023-04-16T12:09:33;50.33;;;27.20;;
5608;SDS011;2826;51.354;9.588;2023-04-16T12:12:01;44.97;;;25.30;;
5608;SDS011;2826;51.354;9.588;2023-04-16T12:14:30;43.77;;;25.90;;
5608;SDS011;2826;51.354;9.588;2023-04-16T12:19:49;45.83;;;24.77;;
5608;SDS011;2826;51.354;9.588;2023-04-16T12:22:24;55.40;;;28.27;;
5608;SDS011;2826;51.354;9.588;2023-04-16T12:24:59;52.70;;;26.47;;
5608;SDS011;2826;51.354;9.588;2023-04-16T12:27:42;42.37;;;26.03;;
5608;SDS011;2826;51.354;9.588;2023-04-16T12:30:11;48.83;;;25.77;;
5608;SDS011;2826;51.354;9.588;2023-04-16T12:32:40;46.37;;;26.70;;
5608;SDS011;2826;51.354;9.588;2023-04-16T12:35:07;39.27;;;20.57;;
5608;SDS011;2826;51.354;9.588;2023-04-16T12:37:36;50.33;;;25.70;;
5608;SDS011;2826;51.354;9.588;2023-04-16T12:40:03;45.43;;;25.33;;
5608;SDS011;2826;51.354;9.588;2023-04-16T12:42:32;42.83;;;25.93;;
5608;SDS011;2826;51.354;9.588;2023-04-16T12:45:01;41.53;;;24.37;;
5608;SDS011;2826;51.354;9.588;2023-04-16T12:47:29;44.50;;;23.30;;
5608;SDS011;2826;51.354;9.588;2023-04-16T12:49:56;49.47;;;24.07;;
5608;SDS011;2826;51.354;9.588;2023-04-16T12:52:23;41.07;;;24.40;;
5608;SDS011;2826;51.354;9.588;2023-04-16T12:54:50;46.57;;;24.60;;
5608;SDS011;2826;51.354;9.588;2023-04-16T12:57:18;45.63;;;25.33;;
5608;SDS011;2826;51.354;9.588;2023-04-16T12:59:45;48.97;;;26.07;;
5608;SDS011;2826;51.354;9.588;2023-04-16T13:02:13;42.57;;;24.60;;
5608;SDS011;2826;51.354;9.588;2023-04-16T13:04:40;42.40;;;24.77;;
5608;SDS011;2826;51.354;9.588;2023-04-16T13:07:07;46.00;;;26.40;;
5608;SDS011;2826;51.354;9.588;2023-04-16T13:09:34;43.60;;;24.77;;
5608;SDS011;2826;51.354;9.588;2023-04-16T13:12:01;44.00;;;26.17;;
5608;SDS011;2826;51.354;9.588;2023-04-16T13:14:28;42.27;;;24.30;;
5608;SDS011;2826;51.354;9.588;2023-04-16T13:16:55;46.63;;;26.80;;
5608;SDS011;2826;51.354;9.588;2023-04-16T13:19:24;47.57;;;26.80;;
5608;SDS011;2826;51.354;9.588;2023-04-16T13:21:51;41.37;;;23.87;;
5608;SDS011;2826;51.354;9.588;2023-04-16T13:24:18;45.37;;;26.77;;
5608;SDS011;2826;51.354;9.588;2023-04-16T13:26:46;42.50;;;26.50;;
5608;SDS011;2826;51.354;9.588;2023-04-16T13:29:14;52.53;;;26.40;;
5608;SDS011;2826;51.354;9.588;2023-04-16T13:31:41;43.23;;;25.40;;
5608;SDS011;2826;51.354;9.588;2023-04-16T13:34:09;49.57;;;27.17;;
5608;SDS011;2826;51.354;9.588;2023-04-16T13:36:36;45.70;;;25.27;;
5608;SDS011;2826;51.354;9.588;2023-04-16T13:39:03;47.60;;;29.00;;
5608;SDS011;2826;51.354;9.588;2023-04-16T13:41:35;49.47;;;26.90;;
5608;SDS011;2826;51.354;9.588;2023-04-16T13:44:02;45.73;;;26.83;;
5608;SDS011;2826;51.354;9.588;2023-04-16T13:46:29;47.00;;;27.80;;
5608;SDS011;2826;51.354;9.588;2023-04-16T13:48:56;58.10;;;30.97;;
5608;SDS011;2826;51.354;9.588;2023-04-16T13:51:23;63.10;;;30.27;;
5608;SDS011;2826;51.354;9.588;2023-04-16T13:53:52;52.20;;;28.90;;
5608;SDS011;2826;51.354;9.588;2023-04-16T13:56:20;46.37;;;27.20;;
5608;SDS011;2826;51.354;9.588;2023-04-16T13:58:47;52.13;;;28.73;;
5608;SDS011;2826;51.354;9.588;2023-04-16T14:01:14;50.43;;;29.13;;
5608;SDS011;2826;51.354;9.588;2023-04-16T14:03:41;53.07;;;28.57;;
5608;SDS011;2826;51.354;9.588;2023-04-16T14:06:08;55.97;;;28.33;;
5608;SDS011;2826;51.354;9.588;2023-04-16T14:08:35;52.30;;;28.20;;
5608;SDS011;2826;51.354;9.588;2023-04-16T14:11:04;48.20;;;29.60;;
5608;SDS011;2826;51.354;9.588;2023-04-16T14:13:31;57.60;;;30.73;;
5608;SDS011;2826;51.354;9.588;2023-04-16T14:15:58;55.87;;;29.50;;
5608;SDS011;2826;51.354;9.588;2023-04-16T14:18:25;57.83;;;30.27;;
5608;SDS011;2826;51.354;9.588;2023-04-16T14:20:56;55.90;;;29.77;;
5608;SDS011;2826;51.354;9.588;2023-04-16T14:23:23;65.10;;;29.27;;
5608;SDS011;2826;51.354;9.588;2023-04-16T14:25:51;55.40;;;25.17;;
5608;SDS011;2826;51.354;9.588;2023-04-16T14:28:21;54.97;;;27.00;;
5608;SDS011;2826;51.354;9.588;2023-04-16T14:30:48;52.60;;;26.80;;
5608;SDS011;2826;51.354;9.588;2023-04-16T14:33:17;60.30;;;29.00;;
5608;SDS011;2826;51.354;9.588;2023-04-16T14:35:44;49.10;;;27.63;;
5608;SDS011;2826;51.354;9.588;2023-04-16T14:38:11;57.60;;;28.50;;
5608;SDS011;2826;51.354;9.588;2023-04-16T14:40:39;50.33;;;28.50;;
5608;SDS011;2826;51.354;9.588;2023-04-16T14:43:07;54.87;;;28.10;;
5608;SDS011;2826;51.354;9.588;2023-04-16T14:45:35;53.50;;;28.20;;
5608;SDS011;2826;51.354;9.588;2023-04-16T14:48:03;45.13;;;25.30;;
5608;SDS011;2826;51.354;9.588;2023-04-16T14:50:32;49.80;;;26.40;;
5608;SDS011;2826;51.354;9.588;2023-04-16T14:53:02;47.20;;;26.90;;
5608;SDS011;2826;51.354;9.588;2023-04-16T14:55:29;46.67;;;25.97;;
5608;SDS011;2826;51.354;9.588;2023-04-16T14:57:57;49.03;;;25.50;;
5608;SDS011;2826;51.354;9.588;2023-04-16T15:00:24;43.60;;;21.43;;